createdAt,value
2019-04-01T00:02:20.247Z,5.30
2019-04-01T00:05:43.720Z,5.20
2019-04-01T00:08:48.118Z,5.20
2019-04-01T00:11:52.500Z,5.10
2019-04-01T00:14:56.951Z,5.00
2019-04-01T00:18:01.329Z,5.00
2019-04-01T00:21:05.666Z,5.00
2019-04-01T00:24:10.427Z,4.90
2019-04-01T00:27:14.764Z,5.00
2019-04-01T00:30:19.165Z,5.00
2019-04-01T00:33:23.551Z,4.90
2019-04-01T00:36:27.871Z,4.80
2019-04-01T00:39:32.168Z,4.80
2019-04-01T00:42:45.874Z,4.80
2019-04-01T00:45:51.039Z,4.70
2019-04-01T00:48:55.346Z,4.60
2019-04-01T00:51:59.686Z,4.60
2019-04-01T00:55:04.078Z,4.60
2019-04-01T00:58:08.844Z,4.60
2019-04-01T01:01:13.289Z,4.50
2019-04-01T01:04:17.668Z,4.50
2019-04-01T01:07:21.994Z,4.50
2019-04-01T01:10:27.815Z,4.40
2019-04-01T01:13:32.211Z,4.30
2019-04-01T01:16:36.606Z,4.30
2019-04-01T01:19:40.903Z,4.40
2019-04-01T01:22:45.227Z,4.30
2019-04-01T01:25:49.600Z,4.30
2019-04-01T01:28:54.366Z,4.20
2019-04-01T01:31:58.752Z,4.20
2019-04-01T01:35:03.448Z,4.20
2019-04-01T01:38:08.123Z,4.20
2019-04-01T01:41:12.912Z,4.20
2019-04-01T01:44:17.637Z,4.10
2019-04-01T01:47:21.952Z,4.20
2019-04-01T01:50:26.416Z,4.10
2019-04-01T01:53:31.105Z,4.10
2019-04-01T01:56:35.502Z,4.20
2019-04-01T01:59:40.221Z,4.00
2019-04-01T02:02:44.687Z,3.90
2019-04-01T02:05:48.987Z,4.10
2019-04-01T02:08:53.309Z,4.00
2019-04-01T02:11:57.990Z,4.00
2019-04-01T02:15:02.436Z,3.90
2019-04-01T02:18:07.227Z,3.80
2019-04-01T02:21:11.597Z,3.90
2019-04-01T02:24:16.822Z,3.90
2019-04-01T02:27:21.523Z,3.80
2019-04-01T02:30:25.813Z,3.70
2019-04-01T02:33:30.515Z,3.70
2019-04-01T02:36:36.210Z,3.60
2019-04-01T02:39:40.567Z,3.60
2019-04-01T02:42:45.308Z,3.60
2019-04-01T02:45:49.609Z,3.60
2019-04-01T02:48:53.985Z,3.60
2019-04-01T02:51:58.445Z,3.60
2019-04-01T02:55:06.565Z,3.70
2019-04-01T02:58:08.860Z,3.70
2019-04-01T03:01:13.370Z,3.60
2019-04-01T03:04:17.959Z,3.80
2019-04-01T03:07:22.369Z,3.60
2019-04-01T03:10:26.696Z,3.60
2019-04-01T03:13:31.542Z,3.70
2019-04-01T03:16:36.733Z,3.70
2019-04-01T03:19:41.054Z,3.60
2019-04-01T03:22:45.412Z,3.60
2019-04-01T03:25:52.691Z,3.60
2019-04-01T03:28:57.461Z,3.60
2019-04-01T03:32:01.859Z,3.60
2019-04-01T03:35:06.685Z,3.60
2019-04-01T03:38:11.069Z,3.50
2019-04-01T03:41:15.765Z,3.40
2019-04-01T03:44:20.093Z,3.40
2019-04-01T03:47:24.502Z,3.40
2019-04-01T03:50:28.935Z,3.40
2019-04-01T03:53:33.239Z,3.40
2019-04-01T03:56:37.473Z,3.30
2019-04-01T03:59:41.844Z,3.30
2019-04-01T04:02:46.183Z,3.40
2019-04-01T04:05:51.703Z,3.20
2019-04-01T04:08:56.107Z,3.20
2019-04-01T04:12:00.500Z,3.20
2019-04-01T04:15:06.679Z,3.20
2019-04-01T04:18:11.847Z,3.20
2019-04-01T04:21:16.425Z,3.20
2019-04-01T04:24:20.761Z,3.10
2019-04-01T04:27:26.638Z,3.10
2019-04-01T04:30:31.576Z,3.10
2019-04-01T04:33:35.988Z,3.00
2019-04-01T04:36:40.345Z,3.10
2019-04-01T04:39:45.080Z,3.00
2019-04-01T04:42:49.396Z,3.00
2019-04-01T04:45:54.162Z,3.00
2019-04-01T04:48:58.498Z,3.00
2019-04-01T04:52:04.861Z,2.90
2019-04-01T04:55:09.595Z,2.90
2019-04-01T04:58:13.979Z,2.90
2019-04-01T05:01:18.325Z,2.80
2019-04-01T05:04:22.705Z,3.00
2019-04-01T05:07:31.193Z,2.90
2019-04-01T05:10:34.207Z,3.00
2019-04-01T05:13:38.727Z,3.10
2019-04-01T05:16:43.156Z,3.00
2019-04-01T05:19:49.225Z,3.10
2019-04-01T05:22:55.320Z,3.10
2019-04-01T05:25:59.714Z,3.10
2019-04-01T05:29:08.789Z,3.30
2019-04-01T05:32:15.716Z,3.60
2019-04-01T05:35:20.397Z,4.10
2019-04-01T05:38:24.764Z,4.50
2019-04-01T05:41:29.131Z,4.90
2019-04-01T05:44:33.767Z,5.30
2019-04-01T05:47:42.573Z,5.70
2019-04-01T05:50:46.918Z,5.90
2019-04-01T05:53:51.422Z,6.00
2019-04-01T05:56:55.745Z,5.90
2019-04-01T06:00:01.267Z,5.90
2019-04-01T06:03:05.780Z,5.70
2019-04-01T06:06:10.052Z,5.60
2019-04-01T06:09:14.404Z,5.50
2019-04-01T06:12:18.783Z,5.40
2019-04-01T06:15:23.135Z,5.30
2019-04-01T06:18:27.867Z,5.20
2019-04-01T06:21:32.597Z,5.20
2019-04-01T06:24:37.363Z,5.20
2019-04-01T06:27:42.081Z,5.30
2019-04-01T06:30:49.735Z,5.40
2019-04-01T06:33:54.469Z,5.30
2019-04-01T06:36:58.787Z,5.40
2019-04-01T06:40:03.113Z,5.50
2019-04-01T06:43:08.696Z,5.60
2019-04-01T06:46:13.477Z,5.70
2019-04-01T06:49:20.213Z,6.00
2019-04-01T06:52:23.758Z,6.00
2019-04-01T06:55:28.262Z,6.10
2019-04-01T06:58:32.692Z,6.20
2019-04-01T07:01:37.192Z,6.30
2019-04-01T07:04:41.597Z,6.50
2019-04-01T07:07:45.926Z,6.60
2019-04-01T07:10:50.662Z,6.90
2019-04-01T07:13:55.263Z,7.30
2019-04-01T07:16:59.738Z,7.80
2019-04-01T07:20:04.618Z,8.40
2019-04-01T07:23:11.124Z,8.90
2019-04-01T07:26:15.431Z,9.40
2019-04-01T07:29:19.854Z,9.90
2019-04-01T07:32:24.583Z,10.30
2019-04-01T07:35:29.048Z,10.60
2019-04-01T07:38:33.366Z,11.10
2019-04-01T07:41:37.675Z,11.30
2019-04-01T07:44:42.184Z,11.70
2019-04-01T07:47:47.190Z,12.00
2019-04-01T07:50:52.172Z,12.10
2019-04-01T07:53:56.608Z,12.40
2019-04-01T07:57:01.982Z,12.60
2019-04-01T08:00:06.797Z,12.90
2019-04-01T08:03:11.502Z,13.20
2019-04-01T08:06:15.832Z,13.50
2019-04-01T08:09:20.537Z,13.70
2019-04-01T08:12:27.855Z,13.80
2019-04-01T08:15:32.333Z,14.10
2019-04-01T08:18:37.001Z,14.30
2019-04-01T08:21:41.458Z,14.50
2019-04-01T08:24:52.319Z,14.70
2019-04-01T08:27:57.217Z,14.90
2019-04-01T08:31:03.601Z,15.20
2019-04-01T08:34:09.442Z,15.40
2019-04-01T08:37:13.826Z,15.60
2019-04-01T08:40:18.167Z,15.70
2019-04-01T08:43:22.448Z,15.90
2019-04-01T08:46:26.793Z,15.90
2019-04-01T08:49:31.475Z,16.00
2019-04-01T08:52:35.826Z,16.00
2019-04-01T08:55:40.419Z,16.00
2019-04-01T08:58:44.969Z,16.10
2019-04-01T09:01:49.715Z,16.20
2019-04-01T09:04:54.083Z,16.10
2019-04-01T09:07:59.577Z,16.20
2019-04-01T09:11:04.020Z,16.30
2019-04-01T09:14:08.913Z,16.40
2019-04-01T09:17:13.553Z,16.50
2019-04-01T09:20:18.030Z,16.60
2019-04-01T09:23:24.815Z,16.80
2019-04-01T09:26:29.539Z,16.90
2019-04-01T09:29:34.082Z,16.90
2019-04-01T09:32:38.650Z,17.00
2019-04-01T09:35:43.059Z,17.10
2019-04-01T09:38:47.773Z,17.20
2019-04-01T09:41:52.481Z,17.60
2019-04-01T09:44:58.881Z,17.70
2019-04-01T09:48:03.278Z,17.80
2019-04-01T09:51:07.719Z,17.90
2019-04-01T09:54:14.222Z,17.90
2019-04-01T09:57:19.154Z,18.00
2019-04-01T10:00:23.671Z,18.10
2019-04-01T10:03:28.436Z,18.10
2019-04-01T10:06:33.422Z,18.20
2019-04-01T10:09:37.805Z,18.30
2019-04-01T10:12:42.705Z,18.60
2019-04-01T10:15:47.477Z,18.70
2019-04-01T10:18:52.138Z,18.70
2019-04-01T10:21:56.477Z,18.60
2019-04-01T10:25:00.771Z,18.50
2019-04-01T10:28:05.616Z,18.30
2019-04-01T10:31:10.237Z,18.30
2019-04-01T10:34:20.360Z,18.40
2019-04-01T10:37:26.136Z,18.50
2019-04-01T10:40:33.558Z,18.60
2019-04-01T10:43:38.339Z,18.80
2019-04-01T10:46:45.991Z,19.00
2019-04-01T10:49:50.669Z,19.30
2019-04-01T10:52:55.089Z,19.30
2019-04-01T10:55:59.701Z,19.30
2019-04-01T10:59:04.703Z,19.30
2019-04-01T11:02:12.509Z,19.30
2019-04-01T11:05:18.290Z,19.20
2019-04-01T11:08:22.726Z,19.30
2019-04-01T11:11:27.321Z,19.40
2019-04-01T11:14:32.071Z,19.40
2019-04-01T11:17:36.414Z,19.50
2019-04-01T11:20:40.874Z,19.50
2019-04-01T11:23:45.237Z,19.70
2019-04-01T11:26:49.560Z,19.80
2019-04-01T11:29:53.965Z,19.60
2019-04-01T11:32:58.209Z,19.70
2019-04-01T11:36:02.630Z,19.70
2019-04-01T11:39:08.038Z,19.90
2019-04-01T11:42:12.343Z,19.80
2019-04-01T11:45:16.854Z,20.00
2019-04-01T11:48:21.331Z,20.00
2019-04-01T11:51:32.588Z,20.30
2019-04-01T11:54:31.780Z,20.40
2019-04-01T11:57:36.183Z,20.50
2019-04-01T12:00:40.494Z,20.30
2019-04-01T12:03:44.925Z,20.10
2019-04-01T12:06:49.294Z,19.80
2019-04-01T12:09:56.098Z,19.40
2019-04-01T12:13:00.499Z,19.20
2019-04-01T12:16:04.815Z,18.80
2019-04-01T12:19:09.176Z,18.50
2019-04-01T12:22:13.537Z,18.10
2019-04-01T12:25:17.855Z,17.50
2019-04-01T12:28:22.181Z,17.10
2019-04-01T12:31:26.631Z,16.70
2019-04-01T12:34:31.312Z,16.40
2019-04-01T12:37:35.676Z,16.00
2019-04-01T12:40:40.088Z,15.70
2019-04-01T12:43:44.853Z,15.50
2019-04-01T12:46:49.644Z,15.30
2019-04-01T12:49:54.397Z,15.00
2019-04-01T12:52:58.804Z,15.00
2019-04-01T12:56:03.173Z,14.80
2019-04-01T12:59:07.501Z,14.60
2019-04-01T13:02:11.843Z,14.50
2019-04-01T13:05:16.524Z,14.30
2019-04-01T13:08:21.235Z,14.20
2019-04-01T13:11:25.518Z,14.20
2019-04-01T13:14:29.961Z,14.20
2019-04-01T13:17:34.304Z,14.10
2019-04-01T13:20:39.053Z,14.10
2019-04-01T13:23:43.468Z,13.90
2019-04-01T13:26:50.871Z,14.00
2019-04-01T13:29:55.213Z,14.00
2019-04-01T13:32:59.588Z,14.00
2019-04-01T13:36:07.659Z,13.90
2019-04-01T13:39:10.336Z,13.90
2019-04-01T13:42:15.153Z,14.00
2019-04-01T13:45:20.558Z,13.90
2019-04-01T13:48:25.862Z,13.80
2019-04-01T13:51:30.322Z,13.70
2019-04-01T13:54:34.955Z,13.70
2019-04-01T13:57:39.284Z,13.90
2019-04-01T14:00:43.625Z,13.90
2019-04-01T14:03:47.958Z,14.00
2019-04-01T14:06:52.503Z,14.10
2019-04-01T14:09:56.928Z,14.20
2019-04-01T14:13:03.556Z,14.20
2019-04-01T14:16:09.162Z,14.10
2019-04-01T14:19:13.780Z,14.20
2019-04-01T14:22:18.110Z,14.30
2019-04-01T14:25:22.819Z,14.30
2019-04-01T14:28:27.872Z,14.30
2019-04-01T14:31:32.172Z,14.30
2019-04-01T14:34:36.541Z,14.40
2019-04-01T14:37:41.346Z,14.50
2019-04-01T14:40:46.078Z,14.50
2019-04-01T14:43:50.442Z,14.50
2019-04-01T14:46:55.200Z,14.40
2019-04-01T14:49:59.615Z,14.40
2019-04-01T14:53:04.013Z,14.50
2019-04-01T14:56:08.293Z,14.40
2019-04-01T14:59:12.610Z,14.40
2019-04-01T15:02:17.011Z,14.50
2019-04-01T15:05:21.862Z,14.40
2019-04-01T15:08:26.518Z,14.40
2019-04-01T15:11:30.895Z,14.30
2019-04-01T15:14:35.220Z,14.40
2019-04-01T15:17:40.018Z,14.30
2019-04-01T15:20:44.404Z,14.30
2019-04-01T15:23:49.074Z,14.20
2019-04-01T15:26:53.390Z,14.30
2019-04-01T15:29:58.229Z,14.20
2019-04-01T15:33:02.616Z,14.20
2019-04-01T15:36:07.211Z,14.10
2019-04-01T15:39:13.710Z,14.10
2019-04-01T15:42:18.014Z,14.00
2019-04-01T15:45:22.350Z,13.90
2019-04-01T15:48:26.650Z,13.80
2019-04-01T15:51:30.989Z,13.80
2019-04-01T15:54:35.429Z,13.80
2019-04-01T15:57:40.202Z,13.80
2019-04-01T16:00:44.603Z,13.80
2019-04-01T16:03:49.351Z,13.70
2019-04-01T16:06:53.866Z,13.60
2019-04-01T16:09:58.201Z,13.60
2019-04-01T16:13:02.525Z,13.60
2019-04-01T16:16:07.219Z,13.50
2019-04-01T16:19:12.450Z,13.40
2019-04-01T16:22:17.194Z,13.50
2019-04-01T16:25:21.572Z,13.40
2019-04-01T16:28:25.899Z,13.20
2019-04-01T16:31:30.177Z,13.20
2019-04-01T16:34:34.858Z,13.10
2019-04-01T16:37:41.833Z,13.10
2019-04-01T16:40:47.061Z,13.00
2019-04-01T16:43:52.538Z,12.90
2019-04-01T16:46:56.871Z,12.90
2019-04-01T16:50:01.534Z,12.70
2019-04-01T16:53:06.618Z,12.70
2019-04-01T16:56:12.983Z,12.60
2019-04-01T16:59:17.282Z,12.50
2019-04-01T17:02:22.051Z,12.50
2019-04-01T17:05:32.857Z,12.40
2019-04-01T17:08:39.093Z,12.40
2019-04-01T17:11:43.966Z,12.20
2019-04-01T17:14:48.289Z,12.20
2019-04-01T17:17:52.805Z,12.00
2019-04-01T17:20:57.202Z,12.00
2019-04-01T17:24:01.922Z,11.90
2019-04-01T17:27:11.298Z,11.70
2019-04-01T17:30:15.957Z,11.70
2019-04-01T17:33:20.358Z,11.40
2019-04-01T17:36:24.676Z,11.20
2019-04-01T17:39:29.071Z,11.10
2019-04-01T17:42:33.688Z,10.90
2019-04-01T17:45:40.313Z,10.60
2019-04-01T17:48:45.060Z,10.50
2019-04-01T17:51:50.179Z,10.40
2019-04-01T17:54:54.566Z,10.20
2019-04-01T17:58:00.323Z,10.10
2019-04-01T18:01:04.649Z,10.10
2019-04-01T18:04:09.316Z,9.90
2019-04-01T18:07:13.962Z,9.80
2019-04-01T18:10:18.705Z,9.80
2019-04-01T18:13:23.099Z,9.80
2019-04-01T18:16:31.105Z,9.60
2019-04-01T18:19:33.888Z,9.70
2019-04-01T18:22:38.220Z,9.60
2019-04-01T18:25:42.629Z,9.60
2019-04-01T18:28:46.940Z,9.50
2019-04-01T18:31:52.924Z,9.40
2019-04-01T18:34:57.871Z,9.50
2019-04-01T18:38:03.472Z,9.50
2019-04-01T18:41:08.509Z,9.40
2019-04-01T18:44:18.280Z,9.40
2019-04-01T18:47:21.803Z,9.30
2019-04-01T18:50:26.477Z,9.20
2019-04-01T18:53:32.757Z,9.20
2019-04-01T18:56:38.168Z,9.20
2019-04-01T18:59:43.074Z,9.20
2019-04-01T19:02:48.640Z,9.10
2019-04-01T19:05:53.753Z,9.10
2019-04-01T19:09:08.735Z,9.00
2019-04-01T19:12:04.840Z,9.00
2019-04-01T19:15:10.197Z,8.80
2019-04-01T19:18:15.000Z,8.80
2019-04-01T19:21:19.255Z,8.70
2019-04-01T19:24:23.668Z,8.70
2019-04-01T19:27:27.992Z,8.50
2019-04-01T19:30:32.414Z,8.50
2019-04-01T19:33:38.137Z,8.50
2019-04-01T19:36:44.874Z,8.50
2019-04-01T19:39:49.317Z,8.50
2019-04-01T19:42:53.640Z,8.60
2019-04-01T19:45:58.297Z,8.50
2019-04-01T19:49:04.960Z,8.60
2019-04-01T19:52:09.887Z,8.60
2019-04-01T19:55:14.391Z,8.60
2019-04-01T19:58:18.746Z,8.40
2019-04-01T20:01:32.430Z,8.50
2019-04-01T20:04:37.547Z,8.50
2019-04-01T20:07:42.051Z,8.40
2019-04-01T20:10:46.694Z,8.40
2019-04-01T20:13:54.733Z,8.40
2019-04-01T20:16:58.251Z,8.30
2019-04-01T20:20:03.453Z,8.20
2019-04-01T20:23:07.797Z,8.20
2019-04-01T20:26:13.412Z,8.10
2019-04-01T20:29:18.080Z,8.20
2019-04-01T20:32:22.753Z,8.20
2019-04-01T20:35:28.349Z,8.20
2019-04-01T20:38:33.464Z,8.10
2019-04-01T20:41:37.939Z,8.10
2019-04-01T20:44:42.594Z,8.00
2019-04-01T20:47:50.045Z,8.00
2019-04-01T20:50:55.037Z,7.90
2019-04-01T20:53:58.994Z,7.90
2019-04-01T20:57:05.213Z,7.80
2019-04-01T21:00:10.687Z,7.80
2019-04-01T21:03:14.997Z,7.90
2019-04-01T21:06:19.611Z,7.80
2019-04-01T21:09:24.359Z,7.80
2019-04-01T21:12:28.812Z,7.80
2019-04-01T21:15:33.416Z,7.90
2019-04-01T21:18:37.756Z,7.80
2019-04-01T21:21:42.076Z,7.80
2019-04-01T21:24:46.810Z,7.80
2019-04-01T21:27:52.080Z,7.70
2019-04-01T21:30:59.425Z,7.70
2019-04-01T21:34:03.371Z,7.90
2019-04-01T21:37:07.713Z,7.80
2019-04-01T21:40:12.531Z,7.70
2019-04-01T21:43:16.839Z,7.80
2019-04-01T21:46:21.825Z,7.80
2019-04-01T21:49:26.101Z,7.80
2019-04-01T21:52:31.213Z,7.70
2019-04-01T21:55:35.578Z,7.70
2019-04-01T21:58:39.857Z,7.70
2019-04-01T22:01:46.106Z,7.70
2019-04-01T22:04:50.590Z,7.70
2019-04-01T22:07:54.989Z,7.70
2019-04-01T22:11:02.479Z,7.60
2019-04-01T22:14:06.790Z,7.60
2019-04-01T22:17:11.214Z,7.60
2019-04-01T22:20:15.515Z,7.50
2019-04-01T22:23:19.815Z,7.50
2019-04-01T22:26:24.587Z,7.60
2019-04-01T22:29:28.931Z,7.50
2019-04-01T22:32:33.560Z,7.40
2019-04-01T22:35:39.193Z,7.40
2019-04-01T22:38:44.481Z,7.30
2019-04-01T22:41:48.832Z,7.40
2019-04-01T22:44:53.531Z,7.40
2019-04-01T22:47:57.796Z,7.30
2019-04-01T22:51:02.850Z,7.30
2019-04-01T22:54:07.237Z,7.30
2019-04-01T22:57:11.886Z,7.30
2019-04-01T23:00:16.483Z,7.10
2019-04-01T23:03:22.566Z,7.20
2019-04-01T23:06:27.019Z,7.20
2019-04-01T23:09:31.768Z,7.20
2019-04-01T23:12:36.419Z,7.10
2019-04-01T23:15:41.039Z,7.10
2019-04-01T23:18:45.701Z,7.10
2019-04-01T23:21:50.626Z,7.10
2019-04-01T23:24:55.091Z,7.00
2019-04-01T23:27:59.491Z,7.10
2019-04-01T23:31:03.795Z,7.10
2019-04-01T23:34:08.892Z,7.10
2019-04-01T23:37:13.651Z,7.10
2019-04-01T23:40:18.054Z,7.10
2019-04-01T23:43:22.319Z,7.00
2019-04-01T23:46:27.233Z,7.00
2019-04-01T23:49:31.643Z,7.00
2019-04-01T23:52:36.112Z,7.00
2019-04-01T23:55:40.412Z,7.00
2019-04-01T23:58:44.733Z,7.10
